Jacksonville, FL (32217)

9:35 AM EST on February 12, 2016 (GMT -0500)
Brierwood/Mandarin | | Change Station
CLOSE
Current Station
Personal Weather Station
Location: Jacksonville, FL
Elevation: 30 ft
Nearby Weather Stations

Elev 30 ft 30.21 °N, 81.60 °W | Updated 11 seconds ago

Partly Cloudy
Partly Cloudy
58.6 °F
Feels Like 58.6 °F
N
2.0
Wind Variable Wind from WSW
Gusts 11.0 mph

Today
High -- | Low -- °F
--% Chance of Precip.
Yesterday
High -- | Low -- °F
Precip. -- in
Pressure 30.22 in
Visibility 10.0 miles
Clouds Scattered Clouds 2800 ft
Scattered Clouds 25000 ft
Dew Point 55 °F
Humidity 88%
Rainfall 0.00 in
Snow Depth Not available.
7:09 AM 6:12 PM
Waxing Crescent, 21% visible
METAR KNIP 121353Z 19006KT 10SM SCT028 SCT250 14/11 A3023 RMK AO2 SLP233 T01390111 $
Pressure 30.22 in
Visibility 10.0 miles
Clouds Scattered Clouds 2800 ft
Scattered Clouds 25000 ft
Dew Point 55 °F
Humidity 88%
Rainfall 0.00 in
Snow Depth Not available.
7:09 AM 6:12 PM
Waxing Crescent, 21% visible
METAR KNIP 121353Z 19006KT 10SM SCT028 SCT250 14/11 A3023 RMK AO2 SLP233 T01390111 $

10-Day Weather Forecast

Almanac

Astronomy

Feb. 12, 2016 Rise Set
Actual Time
Civil Twilight
Nautical Twilight
Astronomical Twilight
Moon
Length of Visible Light
Length of Day
Tomorrow will be .
, % of the Moon is Illuminated

Today's Extremes

State Highs State Lows

Community

WunderPhotos

Upload Photos

1,892,316 photos uploaded!

WunderBlog® & News

Nearby

Air Quality

  Air Quality AQ Index Pollutant
Not available.

Snow Depth

Station Depth Elevation

Earthquake Activity

City Distance Mag. Time & Date
Minimum magnitude displayed is 2.5.

Coastal Water Temperatures

Place Temperature

Stations

Nearby Weather Stations

Station Location Temp. Windchill Dew Point Humidity Wind Precip. Elev Updated Type
                   

Watches & Warnings

There are currently no watches in effect.